Time;durP1;ratioP1;P1;durP2;ratioP2;P2;SDS_P1;SDS_P2;PMS_P1;PMS_P2;Temp;Humidity;BMP_temperature;BMP_pressure;BME280_temperature;BME280_humidity;BME280_pressure;Samples;Min_cycle;Max_cycle;Signal;HPM_P1;HPM_P2
2022/08/19 00:01:40;;;;;;;8.80;5.90;;;23.40;62.10;;;;;;4971727;28;20456;-85
2022/08/19 00:04:08;;;;;;;10.23;5.75;;;23.30;61.90;;;;;;4986710;28;20385;-82
2022/08/19 00:06:35;;;;;;;11.20;5.82;;;23.30;62.00;;;;;;5001526;28;20111;-83
2022/08/19 00:09:03;;;;;;;11.30;5.80;;;23.30;62.20;;;;;;4982343;28;20416;-82
2022/08/19 00:11:29;;;;;;;11.23;5.82;;;23.20;62.00;;;;;;4984873;28;20484;-84
2022/08/19 00:13:56;;;;;;;11.73;5.75;;;23.30;62.40;;;;;;4985675;28;20057;-84
2022/08/19 00:16:23;;;;;;;10.23;5.40;;;23.20;62.10;;;;;;4974267;28;20088;-84
2022/08/19 00:18:49;;;;;;;9.23;6.05;;;23.20;62.10;;;;;;4992221;28;20037;-83
2022/08/19 00:21:16;;;;;;;10.35;6.47;;;23.20;62.50;;;;;;5004044;28;20117;-84
2022/08/19 00:23:42;;;;;;;9.95;5.32;;;23.20;63.00;;;;;;4973351;28;20060;-85
2022/08/19 00:26:10;;;;;;;8.35;5.65;;;23.20;62.20;;;;;;4984699;28;20405;-83
2022/08/19 00:28:37;;;;;;;9.40;5.70;;;23.20;62.30;;;;;;5000733;28;20104;-85
2022/08/19 00:31:04;;;;;;;12.52;6.28;;;23.20;62.20;;;;;;4983957;28;20413;-84
2022/08/19 00:33:34;;;;;;;9.82;6.55;;;23.20;62.10;;;;;;4982857;28;20026;-82
2022/08/19 00:36:01;;;;;;;10.32;6.07;;;23.20;61.90;;;;;;4989443;28;20037;-81
2022/08/19 00:38:27;;;;;;;10.25;6.70;;;23.10;62.00;;;;;;4982439;28;20062;-84
2022/08/19 00:40:54;;;;;;;11.63;6.40;;;23.10;62.00;;;;;;4968208;28;20126;-83
2022/08/19 00:43:23;;;;;;;11.27;6.82;;;23.10;62.20;;;;;;4999777;28;20437;-83
2022/08/19 00:45:49;;;;;;;10.32;6.47;;;23.00;62.40;;;;;;4981763;28;20041;-82
2022/08/19 00:48:16;;;;;;;16.00;6.88;;;23.10;62.40;;;;;;5001099;28;20513;-84
2022/08/19 00:50:44;;;;;;;15.40;7.57;;;23.10;62.00;;;;;;5001725;28;20030;-83
2022/08/19 00:53:14;;;;;;;9.55;6.63;;;23.00;62.10;;;;;;4983328;28;20038;-82
2022/08/19 00:55:43;;;;;;;13.00;6.93;;;23.00;62.20;;;;;;4999093;28;20508;-82
2022/08/19 00:58:13;;;;;;;11.35;6.50;;;23.00;62.30;;;;;;4997596;28;20069;-81
2022/08/19 01:00:39;;;;;;;10.60;6.93;;;23.00;62.40;;;;;;5001228;28;20492;-83
2022/08/19 01:03:11;;;;;;;10.77;6.85;;;23.00;62.40;;;;;;4984224;28;20064;-81
2022/08/19 01:05:39;;;;;;;14.27;6.97;;;23.00;62.10;;;;;;5000851;28;20061;-85
2022/08/19 01:08:06;;;;;;;13.80;7.32;;;22.90;62.20;;;;;;5000233;28;20054;-82
2022/08/19 01:10:42;;;;;;;14.55;6.93;;;22.80;62.30;;;;;;4983001;28;20405;-83
2022/08/19 01:13:08;;;;;;;12.80;6.97;;;22.80;62.60;;;;;;5001590;28;20034;-83
2022/08/19 01:15:43;;;;;;;12.88;7.55;;;22.90;62.70;;;;;;4966949;28;20026;-84
2022/08/19 01:18:12;;;;;;;14.10;7.57;;;22.80;62.80;;;;;;5000578;28;20036;-83
2022/08/19 01:20:40;;;;;;;14.88;8.00;;;22.80;62.60;;;;;;4973618;28;20045;-82
2022/08/19 01:23:06;;;;;;;13.55;7.68;;;22.80;62.70;;;;;;5003205;28;20045;-82
2022/08/19 01:25:55;;;;;;;14.75;7.10;;;22.80;62.70;;;;;;5003103;28;20033;-83
2022/08/19 01:28:27;;;;;;;14.38;7.65;;;22.70;62.90;;;;;;4989656;28;20460;-83
2022/08/19 01:30:54;;;;;;;14.48;7.22;;;22.70;63.20;;;;;;5003625;28;20125;-83
2022/08/19 01:33:20;;;;;;;13.52;7.05;;;22.60;63.40;;;;;;4987156;28;20025;-83
2022/08/19 01:35:51;;;;;;;16.25;7.97;;;22.60;63.30;;;;;;4992443;28;20382;-82
2022/08/19 01:38:24;;;;;;;12.77;7.60;;;22.60;63.40;;;;;;4991454;28;20041;-82
2022/08/19 01:40:50;;;;;;;13.93;7.68;;;22.60;63.20;;;;;;4988424;28;20065;-82
2022/08/19 01:43:18;;;;;;;11.27;7.55;;;22.60;63.50;;;;;;4984631;28;20251;-82
2022/08/19 01:45:45;;;;;;;11.68;7.45;;;22.60;63.40;;;;;;5004207;28;20042;-82
2022/08/19 01:48:13;;;;;;;14.43;7.97;;;22.50;63.60;;;;;;5005975;28;20036;-82
2022/08/19 01:50:39;;;;;;;14.52;7.60;;;22.50;63.70;;;;;;5003897;28;20030;-83
2022/08/19 01:53:10;;;;;;;13.48;7.45;;;22.40;63.60;;;;;;5002169;28;20034;-82
2022/08/19 01:55:39;;;;;;;12.50;7.05;;;22.40;63.70;;;;;;4990140;28;20133;-82
2022/08/19 01:58:07;;;;;;;14.20;7.65;;;22.40;63.80;;;;;;5000368;28;20034;-81
2022/08/19 02:00:33;;;;;;;12.05;7.05;;;22.40;63.80;;;;;;5004121;28;20041;-83
2022/08/19 02:03:00;;;;;;;9.23;7.07;;;22.30;63.70;;;;;;5004388;28;20022;-83
2022/08/19 02:05:28;;;;;;;15.18;7.93;;;22.40;63.70;;;;;;4984398;28;20058;-82
2022/08/19 02:07:56;;;;;;;14.43;6.88;;;22.40;63.80;;;;;;4985799;28;20125;-82
2022/08/19 02:10:22;;;;;;;13.02;7.20;;;22.40;63.70;;;;;;5003123;28;20038;-81
2022/08/19 02:12:49;;;;;;;10.73;6.78;;;22.30;63.70;;;;;;4985544;28;20034;-82
2022/08/19 02:15:18;;;;;;;15.82;7.32;;;22.30;63.70;;;;;;4985574;28;20036;-82
2022/08/19 02:17:44;;;;;;;14.73;6.95;;;22.30;63.50;;;;;;4989952;28;20127;-82
2022/08/19 02:20:12;;;;;;;14.25;7.38;;;22.30;63.60;;;;;;4987460;28;20048;-83
2022/08/19 02:22:41;;;;;;;14.75;6.60;;;22.30;63.70;;;;;;4991076;28;20124;-83
2022/08/19 02:25:08;;;;;;;11.93;6.70;;;22.30;63.90;;;;;;5002391;28;20338;-80
2022/08/19 02:27:34;;;;;;;12.77;6.40;;;22.30;64.00;;;;;;5005581;28;20069;-81
2022/08/19 02:30:00;;;;;;;10.80;6.30;;;22.20;63.80;;;;;;5005021;28;20423;-81
2022/08/19 02:32:27;;;;;;;11.35;6.72;;;22.20;63.90;;;;;;5025663;28;20057;-79
2022/08/19 02:34:53;;;;;;;12.68;6.55;;;22.20;64.10;;;;;;5018736;28;20037;-81
2022/08/19 02:40:04;;;;;;;14.77;6.88;;;22.20;63.90;;;;;;5006264;28;20037;-84
2022/08/19 02:42:31;;;;;;;13.90;6.32;;;22.20;64.00;;;;;;5004957;28;20032;-84
2022/08/19 02:44:57;;;;;;;13.20;5.72;;;22.20;63.90;;;;;;5004333;28;20042;-83
2022/08/19 02:47:23;;;;;;;9.85;5.88;;;22.20;64.80;;;;;;5003206;28;20046;-82
2022/08/19 02:49:51;;;;;;;13.45;5.90;;;22.20;64.20;;;;;;5002262;28;20100;-80
2022/08/19 02:52:17;;;;;;;10.25;6.30;;;22.20;64.20;;;;;;5001564;28;20034;-82
2022/08/19 02:54:44;;;;;;;14.43;6.50;;;22.10;64.30;;;;;;4984753;28;20504;-82
2022/08/19 02:57:10;;;;;;;11.23;5.90;;;22.10;64.30;;;;;;5002587;28;20026;-81
2022/08/19 02:59:36;;;;;;;9.85;5.88;;;22.00;64.30;;;;;;4985351;28;20037;-82
2022/08/19 03:02:02;;;;;;;11.43;5.90;;;22.10;64.40;;;;;;5003569;28;20050;-82
2022/08/19 03:04:29;;;;;;;12.45;5.97;;;22.00;64.60;;;;;;5003252;28;20034;-82
2022/08/19 03:06:55;;;;;;;13.85;6.78;;;22.00;64.60;;;;;;4984698;28;20397;-82
2022/08/19 03:09:21;;;;;;;12.38;6.18;;;22.00;64.80;;;;;;5001501;28;20046;-80
2022/08/19 03:11:47;;;;;;;11.38;6.18;;;22.00;64.90;;;;;;4987335;28;20414;-81
2022/08/19 03:14:14;;;;;;;10.50;5.72;;;22.00;64.70;;;;;;5005302;28;20037;-82
2022/08/19 03:16:45;;;;;;;11.20;6.53;;;22.00;64.90;;;;;;5002335;28;20030;-83
2022/08/19 03:19:12;;;;;;;14.00;6.68;;;22.00;64.90;;;;;;4972154;28;20026;-84
2022/08/19 03:21:38;;;;;;;14.95;7.50;;;22.00;64.90;;;;;;5001703;28;20120;-82
2022/08/19 03:24:07;;;;;;;12.82;6.28;;;22.00;65.00;;;;;;5001283;28;20433;-83
2022/08/19 03:26:37;;;;;;;12.40;6.10;;;22.00;65.80;;;;;;5001578;28;20037;-82
2022/08/19 03:29:04;;;;;;;11.75;6.38;;;22.00;65.10;;;;;;4987961;28;20038;-84
2022/08/19 03:31:31;;;;;;;13.82;6.38;;;22.00;65.20;;;;;;5001511;28;20042;-83
2022/08/19 03:33:57;;;;;;;11.10;6.30;;;22.10;65.00;;;;;;5002121;28;20030;-85
2022/08/19 03:36:25;;;;;;;13.15;6.70;;;22.20;65.10;;;;;;5007382;28;20566;-84
2022/08/19 03:38:55;;;;;;;10.60;6.60;;;22.10;64.90;;;;;;5002267;28;20069;-85
2022/08/19 03:41:36;;;;;;;11.05;7.00;;;22.10;64.80;;;;;;5001334;28;20030;-83
2022/08/19 03:44:04;;;;;;;11.07;6.75;;;22.10;64.80;;;;;;4997936;28;20037;-83
2022/08/19 03:46:32;;;;;;;12.27;6.72;;;22.10;65.00;;;;;;4999448;28;20044;-82
2022/08/19 03:49:00;;;;;;;11.48;6.43;;;22.10;65.00;;;;;;4986652;28;20054;-81
2022/08/19 03:51:34;;;;;;;11.48;6.63;;;22.10;64.70;;;;;;5001740;28;20042;-86
2022/08/19 03:54:02;;;;;;;17.70;6.67;;;22.10;64.90;;;;;;4963651;28;20030;-86
2022/08/19 03:56:29;;;;;;;13.85;6.53;;;22.10;64.80;;;;;;4984675;28;20501;-87
2022/08/19 03:58:56;;;;;;;11.38;6.22;;;22.10;64.90;;;;;;5001706;28;20038;-87
2022/08/19 04:01:26;;;;;;;11.23;6.38;;;22.10;65.00;;;;;;4999812;28;20034;-86
2022/08/19 04:03:53;;;;;;;9.82;6.03;;;22.10;65.10;;;;;;5002003;28;20037;-86
2022/08/19 04:06:22;;;;;;;9.27;6.13;;;22.20;65.20;;;;;;5000969;28;20389;-86
2022/08/19 04:08:50;;;;;;;10.02;6.50;;;22.20;64.90;;;;;;4970920;28;20050;-87
2022/08/19 04:11:23;;;;;;;14.05;5.93;;;22.20;64.90;;;;;;5001592;28;20442;-85
2022/08/19 04:13:53;;;;;;;9.05;6.13;;;22.30;64.70;;;;;;4983341;28;20068;-82
2022/08/19 04:16:24;;;;;;;9.55;5.32;;;22.30;64.90;;;;;;4998243;28;20493;-85
2022/08/19 04:18:50;;;;;;;11.15;5.72;;;22.30;64.60;;;;;;5003294;28;20128;-83
2022/08/19 04:21:20;;;;;;;7.30;5.43;;;22.30;64.70;;;;;;5000822;28;20034;-86
2022/08/19 04:23:46;;;;;;;13.02;5.57;;;22.40;64.80;;;;;;4986276;28;20041;-80
2022/08/19 04:26:15;;;;;;;13.00;5.75;;;22.50;64.70;;;;;;5001742;28;20045;-83
2022/08/19 04:28:42;;;;;;;8.15;5.63;;;22.60;64.30;;;;;;5000125;28;20056;-82
2022/08/19 04:31:15;;;;;;;11.50;5.20;;;22.70;64.10;;;;;;4986120;28;20038;-82
2022/08/19 04:33:41;;;;;;;10.00;6.30;;;22.80;63.80;;;;;;5000200;28;20594;-81
2022/08/19 04:36:07;;;;;;;10.90;5.80;;;22.90;63.50;;;;;;5000453;28;20029;-83
2022/08/19 04:38:33;;;;;;;11.05;6.05;;;23.00;63.30;;;;;;4982217;28;20489;-81
2022/08/19 04:43:48;;;;;;;12.30;6.00;;;23.40;62.80;;;;;;5014922;28;20098;-83
2022/08/19 04:46:14;;;;;;;9.70;5.05;;;23.60;61.90;;;;;;5003515;28;20030;-82
2022/08/19 04:48:40;;;;;;;9.88;5.47;;;23.80;61.60;;;;;;5001246;28;20440;-83
2022/08/19 04:51:09;;;;;;;8.98;5.25;;;23.80;61.20;;;;;;5005256;28;20505;-82
2022/08/19 04:53:37;;;;;;;11.52;5.40;;;23.80;61.30;;;;;;5008831;28;20085;-83
2022/08/19 04:56:12;;;;;;;9.93;5.45;;;23.80;61.50;;;;;;4991584;28;20041;-84
2022/08/19 04:58:42;;;;;;;8.40;5.28;;;23.90;61.30;;;;;;5000945;28;20136;-82
2022/08/19 05:01:10;;;;;;;9.30;5.35;;;24.20;60.80;;;;;;4998144;28;20038;-82
2022/08/19 05:03:36;;;;;;;8.35;4.80;;;24.60;60.30;;;;;;4982825;28;20026;-80
2022/08/19 05:06:13;;;;;;;9.65;5.07;;;24.80;59.60;;;;;;5004023;28;20520;-80
2022/08/19 05:08:42;;;;;;;7.97;4.78;;;24.70;59.30;;;;;;5002574;28;20058;-81
2022/08/19 05:11:15;;;;;;;10.68;4.57;;;24.60;59.70;;;;;;4990203;28;20027;-82
2022/08/19 05:13:42;;;;;;;8.15;5.22;;;24.60;60.00;;;;;;5006492;28;20034;-83
2022/08/19 05:16:10;;;;;;;8.13;4.45;;;24.60;60.00;;;;;;5003751;28;20122;-83
2022/08/19 05:24:08;;;;;;;9.98;4.78;;;24.60;60.20;;;;;;5005205;28;20501;-81
2022/08/19 05:26:45;;;;;;;9.75;5.07;;;24.50;60.50;;;;;;5004241;28;20038;-80
2022/08/19 05:29:11;;;;;;;10.88;4.72;;;24.40;60.60;;;;;;5004481;28;20038;-82
2022/08/19 05:31:38;;;;;;;12.18;4.38;;;24.40;61.00;;;;;;5002829;28;20394;-81
2022/08/19 05:34:05;;;;;;;11.48;4.75;;;24.40;60.80;;;;;;4985817;28;20058;-82
2022/08/19 05:36:35;;;;;;;13.52;4.68;;;24.40;60.80;;;;;;4986928;28;20515;-82
2022/08/19 05:39:03;;;;;;;10.77;4.80;;;24.40;60.90;;;;;;5005731;28;20037;-82
2022/08/19 05:41:30;;;;;;;7.93;4.60;;;24.40;61.10;;;;;;5003307;28;20057;-80
2022/08/19 05:43:57;;;;;;;8.68;4.78;;;24.40;61.10;;;;;;4987322;28;20034;-82
2022/08/19 05:46:24;;;;;;;10.25;4.78;;;24.50;61.00;;;;;;4989792;28;20112;-82
2022/08/19 05:48:50;;;;;;;6.22;4.43;;;24.60;60.50;;;;;;4985048;28;20045;-81
2022/08/19 05:51:16;;;;;;;10.13;4.80;;;24.60;60.60;;;;;;5008738;28;20081;-82
2022/08/19 05:53:43;;;;;;;5.10;4.28;;;24.80;60.60;;;;;;5004692;28;20038;-83
2022/08/19 05:56:15;;;;;;;7.55;4.75;;;24.80;60.50;;;;;;5004795;28;20043;-81
2022/08/19 05:58:44;;;;;;;8.95;4.85;;;24.80;60.50;;;;;;4985651;28;20128;-81
2022/08/19 06:01:12;;;;;;;7.75;4.55;;;24.80;60.70;;;;;;5004378;28;20037;-79
2022/08/19 06:03:39;;;;;;;9.80;4.63;;;24.80;60.50;;;;;;5003163;28;20030;-81
2022/08/19 06:06:07;;;;;;;7.40;4.90;;;24.90;60.10;;;;;;5004144;28;20441;-82
2022/08/19 06:08:34;;;;;;;9.43;4.88;;;24.90;60.30;;;;;;5003557;28;20138;-80
2022/08/19 06:11:22;;;;;;;11.25;4.53;;;25.00;60.20;;;;;;5002855;28;20077;-80
2022/08/19 06:13:52;;;;;;;7.15;4.93;;;25.20;59.90;;;;;;4969599;28;20041;-81
2022/08/19 06:16:22;;;;;;;10.45;5.00;;;25.30;59.50;;;;;;4985602;28;20030;-81
2022/08/19 06:18:51;;;;;;;7.80;4.53;;;25.40;59.50;;;;;;5000509;28;20042;-82
2022/08/19 06:21:22;;;;;;;10.80;5.05;;;25.40;59.50;;;;;;4987244;28;20036;-90
2022/08/19 06:23:48;;;;;;;6.40;5.13;;;25.50;59.70;;;;;;4989502;28;20076;-89
2022/08/19 06:26:15;;;;;;;12.07;4.95;;;25.60;59.40;;;;;;4971992;28;20034;-85
2022/08/19 06:28:44;;;;;;;11.05;4.80;;;25.70;59.10;;;;;;4986468;28;20038;-88
2022/08/19 06:31:12;;;;;;;7.20;4.60;;;25.80;59.30;;;;;;5005484;28;20145;-86
2022/08/19 06:33:39;;;;;;;9.73;4.80;;;26.00;59.00;;;;;;4990530;28;20030;-89
2022/08/19 06:36:05;;;;;;;9.13;4.97;;;26.20;59.00;;;;;;4991635;28;20026;-86
2022/08/19 06:38:33;;;;;;;8.18;4.75;;;26.40;58.00;;;;;;5002089;28;20030;-88
2022/08/19 06:41:03;;;;;;;11.30;4.65;;;26.40;57.50;;;;;;4984970;28;20122;-88
2022/08/19 06:43:30;;;;;;;10.88;4.32;;;26.50;57.60;;;;;;5002453;28;20038;-83
2022/08/19 06:45:58;;;;;;;7.35;4.32;;;26.60;57.20;;;;;;4972197;28;20077;-89
2022/08/19 06:48:24;;;;;;;7.88;4.30;;;26.50;57.10;;;;;;4991253;28;20057;-90
2022/08/19 06:50:51;;;;;;;8.05;4.43;;;26.40;56.40;;;;;;4968860;28;20065;-88
2022/08/19 06:53:19;;;;;;;10.48;4.93;;;26.50;56.90;;;;;;4986615;28;20736;-92
2022/08/19 06:55:45;;;;;;;9.40;4.80;;;26.50;57.00;;;;;;4969900;28;20034;-91
2022/08/19 06:58:11;;;;;;;5.63;4.63;;;26.40;56.80;;;;;;4985418;28;20040;-86
2022/08/19 07:00:37;;;;;;;8.93;4.50;;;26.40;56.60;;;;;;4992238;28;20041;-92
2022/08/19 07:03:03;;;;;;;6.55;4.57;;;26.60;56.70;;;;;;5011252;28;20054;-92
2022/08/19 07:05:29;;;;;;;8.57;4.95;;;26.60;56.60;;;;;;4994601;28;20043;-89
2022/08/19 07:07:56;;;;;;;9.73;4.63;;;26.50;56.20;;;;;;4992504;28;20095;-91
2022/08/19 07:10:22;;;;;;;6.63;4.53;;;26.50;56.50;;;;;;4991958;28;20041;-92
2022/08/19 07:12:49;;;;;;;7.57;4.60;;;26.40;56.20;;;;;;4967745;28;20039;-92
2022/08/19 07:15:16;;;;;;;8.93;4.78;;;26.50;56.40;;;;;;5006584;28;20112;-93
2022/08/19 07:17:43;;;;;;;10.00;4.60;;;26.50;55.70;;;;;;4972885;28;20049;-85
2022/08/19 07:20:10;;;;;;;8.38;4.55;;;26.50;55.60;;;;;;4987109;28;20042;-85
2022/08/19 07:22:37;;;;;;;7.57;4.32;;;26.50;55.50;;;;;;4984431;28;20030;-92
2022/08/19 07:25:06;;;;;;;6.85;4.63;;;26.60;55.50;;;;;;4988933;28;20122;-88
2022/08/19 07:27:33;;;;;;;9.68;4.15;;;26.70;55.50;;;;;;4982505;28;20037;-87
2022/08/19 07:30:00;;;;;;;8.63;4.32;;;26.70;55.60;;;;;;4969278;28;20034;-88
2022/08/19 07:32:26;;;;;;;6.63;4.18;;;26.80;55.00;;;;;;4989059;28;20038;-89
2022/08/19 07:34:52;;;;;;;13.95;4.78;;;26.80;54.70;;;;;;4988296;28;20421;-89
2022/08/19 07:37:18;;;;;;;8.00;4.47;;;26.60;54.80;;;;;;4974204;28;20069;-95
2022/08/19 07:39:44;;;;;;;8.18;4.93;;;26.60;54.90;;;;;;4993574;28;20058;-96
2022/08/19 07:42:13;;;;;;;8.82;4.78;;;26.50;55.20;;;;;;5004010;28;20467;-89
2022/08/19 07:44:40;;;;;;;7.30;4.72;;;26.50;55.00;;;;;;4985959;28;20069;-88
2022/08/19 07:47:06;;;;;;;6.40;4.72;;;26.40;55.70;;;;;;4983480;28;20041;-88
2022/08/19 07:49:33;;;;;;;6.90;4.68;;;26.30;55.30;;;;;;4969709;28;20034;-91
2022/08/19 07:52:04;;;;;;;10.35;4.72;;;26.30;55.60;;;;;;4972872;28;20034;-90
2022/08/19 07:54:36;;;;;;;10.77;4.78;;;26.30;55.80;;;;;;4970801;28;20084;-90
2022/08/19 07:57:03;;;;;;;7.95;4.93;;;26.30;56.00;;;;;;4985869;28;20129;-89
2022/08/19 07:59:29;;;;;;;8.73;5.30;;;26.20;56.00;;;;;;4973977;28;20089;-91
2022/08/19 08:01:56;;;;;;;8.10;4.85;;;26.20;55.80;;;;;;4984746;28;20026;-95
2022/08/19 08:09:52;;;;;;;7.40;4.85;;;26.20;56.50;;;;;;4987568;28;20037;-88
2022/08/19 08:12:28;;;;;;;7.40;4.90;;;26.20;56.80;;;;;;5025434;28;20158;-91
2022/08/19 08:14:57;;;;;;;8.90;4.55;;;26.20;56.80;;;;;;5010785;28;20469;-91
2022/08/19 08:17:25;;;;;;;10.55;5.03;;;26.20;56.80;;;;;;5011800;28;20042;-94
2022/08/19 08:19:52;;;;;;;8.75;4.80;;;26.30;56.60;;;;;;4989188;28;20045;-90
2022/08/19 08:23:21;;;;;;;5.85;4.25;;;26.20;56.00;;;;;;4982726;28;20025;-88
2022/08/19 08:25:11;;;;;;;11.00;4.38;;;26.20;56.40;;;;;;5058682;23;20047;-90
2022/08/19 08:27:39;;;;;;;6.35;4.15;;;26.20;56.20;;;;;;5034313;28;20071;-90
2022/08/19 08:30:13;;;;;;;8.75;4.55;;;26.20;55.40;;;;;;5023180;28;20556;-88
2022/08/19 08:32:40;;;;;;;11.88;4.80;;;26.20;55.90;;;;;;5028888;28;20036;-88
2022/08/19 08:35:09;;;;;;;6.32;3.90;;;26.20;55.50;;;;;;5005308;28;20041;-90
2022/08/19 08:37:36;;;;;;;9.35;4.47;;;26.20;55.20;;;;;;5039178;28;20229;-85
2022/08/19 08:40:16;;;;;;;8.90;4.10;;;26.20;54.90;;;;;;5003232;28;20036;-91
2022/08/19 08:42:53;;;;;;;6.50;3.95;;;26.10;54.90;;;;;;4997989;28;20032;-88
2022/08/19 08:45:21;;;;;;;7.53;4.60;;;26.00;54.80;;;;;;5038804;28;20123;-88
2022/08/19 08:47:51;;;;;;;9.00;4.32;;;25.90;55.00;;;;;;5037367;28;20135;-87
2022/08/19 08:50:39;;;;;;;5.45;3.97;;;25.90;55.40;;;;;;5014061;28;20186;-88
2022/08/19 08:53:08;;;;;;;11.20;3.95;;;25.90;55.30;;;;;;5003055;28;20048;-87
2022/08/19 08:55:34;;;;;;;8.18;4.10;;;25.90;55.30;;;;;;5008671;28;20044;-88
2022/08/19 08:58:16;;;;;;;4.38;3.53;;;25.90;55.30;;;;;;5035973;28;20033;-89
2022/08/19 09:00:48;;;;;;;6.53;4.22;;;25.90;54.30;;;;;;5020419;28;20025;-90
2022/08/19 09:03:23;;;;;;;10.02;4.25;;;25.90;54.70;;;;;;5021859;28;20427;-94
2022/08/19 09:06:28;;;;;;;8.68;4.07;;;25.90;54.90;;;;;;5042819;28;20033;-90
2022/08/19 09:09:12;;;;;;;8.50;3.92;;;25.90;54.60;;;;;;4976252;28;20049;-92
2022/08/19 09:11:46;;;;;;;6.35;4.45;;;25.80;54.20;;;;;;4968798;28;20042;-90
2022/08/19 09:14:50;;;;;;;7.50;4.30;;;25.90;54.60;;;;;;4973601;28;20077;-87
2022/08/19 09:17:18;;;;;;;10.05;4.20;;;25.90;54.60;;;;;;4963293;28;20573;-88
2022/08/19 09:19:50;;;;;;;8.95;4.13;;;25.90;54.60;;;;;;4975831;28;20034;-87
2022/08/19 09:22:16;;;;;;;8.75;3.92;;;25.90;54.00;;;;;;4958561;28;20062;-82
2022/08/19 09:24:42;;;;;;;5.82;3.78;;;25.90;53.60;;;;;;4957787;28;20051;-85
2022/08/19 09:27:08;;;;;;;6.00;3.40;;;25.90;53.90;;;;;;4955473;28;20087;-84
2022/08/19 09:29:34;;;;;;;5.25;3.30;;;25.90;54.10;;;;;;4955149;28;20079;-85
2022/08/19 09:32:00;;;;;;;8.27;3.90;;;25.90;54.30;;;;;;4950204;28;20038;-84
2022/08/19 09:34:26;;;;;;;6.40;3.40;;;25.90;54.40;;;;;;4931322;28;20035;-85
2022/08/19 09:36:52;;;;;;;5.35;3.30;;;25.90;54.10;;;;;;4955706;28;20416;-85
2022/08/19 09:39:19;;;;;;;6.18;3.45;;;25.90;54.00;;;;;;4962360;28;20046;-85
2022/08/19 09:41:45;;;;;;;5.43;3.55;;;25.90;52.80;;;;;;4952413;28;20457;-86
2022/08/19 09:44:12;;;;;;;4.00;3.25;;;26.00;52.30;;;;;;5020413;28;20043;-85
2022/08/19 09:46:38;;;;;;;6.68;3.30;;;26.00;52.60;;;;;;5020959;28;20526;-86
2022/08/19 09:49:06;;;;;;;5.32;3.17;;;26.00;52.30;;;;;;5004053;28;20041;-83
2022/08/19 09:51:32;;;;;;;9.77;3.38;;;26.10;52.20;;;;;;5038324;28;20071;-84
2022/08/19 09:54:03;;;;;;;5.00;2.92;;;26.10;48.40;;;;;;5034665;28;20127;-86
2022/08/19 09:56:30;;;;;;;5.88;2.80;;;26.10;47.50;;;;;;5040280;28;20039;-85
2022/08/19 09:59:02;;;;;;;8.88;2.92;;;26.00;46.60;;;;;;5011347;28;20039;-91
2022/08/19 10:01:31;;;;;;;6.60;2.75;;;26.00;46.50;;;;;;5064292;28;20043;-90
2022/08/19 10:03:59;;;;;;;6.85;3.00;;;26.00;47.00;;;;;;5053583;28;20036;-88
2022/08/19 10:06:29;;;;;;;7.75;2.83;;;25.90;44.60;;;;;;5033369;28;20045;-86
2022/08/19 10:08:56;;;;;;;5.85;2.80;;;25.90;45.20;;;;;;5018220;28;20044;-89
2022/08/19 10:11:22;;;;;;;7.88;3.55;;;25.90;45.90;;;;;;5050766;28;20462;-90
2022/08/19 10:13:48;;;;;;;8.18;2.85;;;25.90;45.10;;;;;;5042094;28;20037;-87
2022/08/19 10:16:19;;;;;;;8.50;3.78;;;26.00;45.90;;;;;;5043010;28;20061;-87
2022/08/19 10:18:45;;;;;;;6.40;2.95;;;26.10;44.70;;;;;;5055842;28;22658;-87
2022/08/19 10:21:17;;;;;;;8.57;3.13;;;26.10;42.20;;;;;;5053433;28;20032;-91
2022/08/19 10:23:45;;;;;;;9.90;3.17;;;26.20;42.00;;;;;;5051614;28;20041;-88
2022/08/19 10:26:14;;;;;;;10.38;3.17;;;26.10;41.30;;;;;;5068981;28;20037;-88
2022/08/19 10:28:40;;;;;;;7.75;2.88;;;26.20;41.70;;;;;;5057776;28;20049;-87
2022/08/19 10:31:08;;;;;;;7.68;2.53;;;26.10;40.90;;;;;;5043205;28;20529;-86
2022/08/19 10:33:36;;;;;;;6.47;2.78;;;26.00;40.70;;;;;;5075814;28;20047;-92
2022/08/19 10:36:14;;;;;;;4.65;2.80;;;26.10;41.10;;;;;;5059452;28;20036;-83
2022/08/19 10:38:41;;;;;;;5.82;2.38;;;26.00;41.00;;;;;;5056878;28;20490;-84
2022/08/19 10:41:20;;;;;;;7.00;2.40;;;26.00;42.10;;;;;;5049419;28;20098;-81
2022/08/19 10:43:47;;;;;;;9.10;2.42;;;25.90;41.30;;;;;;5066326;28;20028;-84
2022/08/19 10:46:15;;;;;;;5.60;2.42;;;25.80;41.10;;;;;;5047979;28;20033;-85
2022/08/19 10:48:42;;;;;;;9.73;2.72;;;25.90;41.40;;;;;;5065456;28;20412;-88
2022/08/19 10:53:55;;;;;;;12.45;2.72;;;25.90;41.90;;;;;;5028665;28;20045;-89
2022/08/19 10:59:07;;;;;;;5.45;2.38;;;25.80;41.10;;;;;;5065747;28;20057;-82
2022/08/19 11:01:34;;;;;;;9.95;2.65;;;25.80;41.70;;;;;;5047756;28;20582;-80
2022/08/19 11:04:03;;;;;;;3.50;2.22;;;25.80;41.80;;;;;;5070405;28;20032;-86
2022/08/19 11:06:31;;;;;;;6.05;2.50;;;25.80;41.70;;;;;;5016251;28;20032;-86
2022/08/19 11:08:58;;;;;;;4.70;2.60;;;25.90;42.20;;;;;;5046357;28;20515;-85
2022/08/19 11:11:24;;;;;;;7.80;2.70;;;25.90;42.10;;;;;;5031118;28;20033;-82
2022/08/19 11:13:52;;;;;;;6.13;2.70;;;25.80;41.30;;;;;;5023513;28;20048;-85
2022/08/19 11:16:24;;;;;;;8.23;2.45;;;25.90;41.70;;;;;;5063636;28;20032;-89
2022/08/19 11:18:53;;;;;;;5.93;2.38;;;25.90;40.90;;;;;;5044330;28;20045;-86
2022/08/19 11:21:25;;;;;;;7.05;2.35;;;25.80;40.10;;;;;;5019454;28;20458;-86
2022/08/19 11:23:54;;;;;;;7.28;2.50;;;25.80;40.50;;;;;;5050156;28;20052;-88
2022/08/19 11:26:22;;;;;;;7.60;2.35;;;25.80;40.50;;;;;;5032866;28;20043;-87
2022/08/19 11:28:48;;;;;;;5.45;2.55;;;25.80;40.60;;;;;;5025065;28;20132;-90
2022/08/19 11:31:17;;;;;;;4.47;2.17;;;25.80;41.10;;;;;;5022639;28;20079;-87
2022/08/19 11:33:44;;;;;;;7.45;2.55;;;25.90;42.00;;;;;;5039905;28;20807;-81
2022/08/19 11:36:10;;;;;;;6.78;2.60;;;25.90;42.40;;;;;;5058721;28;20032;-85
2022/08/19 11:38:37;;;;;;;4.93;2.47;;;25.80;43.20;;;;;;5057949;28;20037;-84
2022/08/19 11:41:09;;;;;;;6.25;2.85;;;25.90;43.70;;;;;;5042291;28;20032;-82
2022/08/19 11:43:36;;;;;;;3.95;2.47;;;25.90;44.10;;;;;;5057075;28;20115;-80
2022/08/19 11:46:06;;;;;;;5.63;2.60;;;25.90;44.40;;;;;;5038727;28;20028;-80
2022/08/19 11:48:33;;;;;;;3.58;2.42;;;25.90;44.10;;;;;;5038197;28;20076;-80
2022/08/19 11:51:05;;;;;;;4.05;2.45;;;26.00;44.80;;;;;;5043010;28;20024;-77
2022/08/19 11:53:32;;;;;;;10.27;2.90;;;26.00;45.10;;;;;;5065892;28;20029;-78
2022/08/19 11:55:58;;;;;;;8.80;2.88;;;26.00;46.00;;;;;;5047600;28;20084;-80
2022/08/19 11:58:27;;;;;;;5.18;2.78;;;26.00;46.30;;;;;;5039179;28;20033;-78
2022/08/19 12:00:53;;;;;;;3.28;2.83;;;25.90;46.50;;;;;;5070437;28;20041;-78
2022/08/19 12:03:19;;;;;;;9.95;3.30;;;25.90;47.00;;;;;;5049165;28;20406;-78
2022/08/19 12:05:45;;;;;;;5.43;2.92;;;25.90;47.40;;;;;;5011663;28;20056;-79
2022/08/19 12:08:15;;;;;;;3.63;2.88;;;25.90;47.60;;;;;;5034361;28;20040;-79
2022/08/19 12:10:42;;;;;;;5.35;2.70;;;25.90;47.70;;;;;;5070320;28;20415;-79
2022/08/19 12:13:09;;;;;;;4.88;2.58;;;26.00;47.80;;;;;;5045366;28;20041;-79
2022/08/19 12:15:38;;;;;;;4.00;2.75;;;26.00;47.90;;;;;;5016917;28;20033;-79
2022/08/19 12:18:07;;;;;;;5.28;2.97;;;26.10;48.30;;;;;;5039608;28;20063;-79
2022/08/19 12:20:39;;;;;;;5.68;3.00;;;26.10;48.40;;;;;;5052288;28;20036;-77
2022/08/19 12:23:06;;;;;;;9.52;2.88;;;26.00;48.40;;;;;;5050028;28;20033;-78
2022/08/19 12:25:34;;;;;;;4.85;2.88;;;26.00;48.50;;;;;;5051150;28;20421;-79
2022/08/19 12:28:00;;;;;;;4.47;2.65;;;25.90;48.50;;;;;;5053914;28;20036;-77
2022/08/19 12:30:27;;;;;;;5.60;3.20;;;25.90;48.30;;;;;;5037879;28;20044;-77
2022/08/19 12:32:53;;;;;;;3.10;2.65;;;25.90;48.60;;;;;;5055600;28;20499;-76
2022/08/19 12:35:19;;;;;;;6.72;2.97;;;26.00;49.10;;;;;;5054374;28;20036;-77
2022/08/19 12:37:47;;;;;;;6.60;3.10;;;26.00;48.70;;;;;;5054957;28;20029;-77
2022/08/19 12:40:15;;;;;;;3.33;2.67;;;26.00;48.70;;;;;;5055305;28;20506;-77
2022/08/19 12:42:42;;;;;;;4.32;2.72;;;26.00;48.80;;;;;;5055205;28;20411;-77
2022/08/19 12:45:10;;;;;;;6.47;3.13;;;26.00;49.00;;;;;;5055136;28;20035;-80
2022/08/19 12:47:37;;;;;;;9.35;3.05;;;26.00;49.00;;;;;;5053303;28;20419;-79
2022/08/19 12:50:04;;;;;;;5.38;2.80;;;26.00;48.60;;;;;;5055516;28;20037;-78
2022/08/19 12:52:30;;;;;;;4.43;3.03;;;26.00;48.90;;;;;;5054785;28;20036;-81
2022/08/19 12:54:57;;;;;;;7.15;3.80;;;26.00;49.00;;;;;;5036269;28;20033;-81
2022/08/19 12:57:25;;;;;;;6.28;3.35;;;26.00;49.00;;;;;;5038324;28;20032;-81
2022/08/19 12:59:54;;;;;;;5.15;3.17;;;26.00;49.10;;;;;;5054901;28;20033;-80
2022/08/19 13:02:21;;;;;;;7.78;2.95;;;26.10;49.20;;;;;;5055500;28;20033;-84
2022/08/19 13:04:47;;;;;;;5.15;2.90;;;26.10;49.10;;;;;;5038625;28;20036;-85
2022/08/19 13:07:12;;;;;;;5.75;3.10;;;26.10;49.50;;;;;;5037073;28;20411;-84
2022/08/19 13:09:41;;;;;;;12.88;3.70;;;26.10;49.70;;;;;;5021531;28;20033;-82
2022/08/19 13:12:12;;;;;;;8.13;2.85;;;26.10;49.70;;;;;;5063909;28;20033;-89